createdAt,value
2023-03-16T00:01:20.478Z,171.31
2023-03-16T07:04:20.879Z,29.91
2023-03-16T09:00:25.320Z,79.45
2023-03-16T10:08:24.306Z,31.12
2023-03-16T12:44:25.847Z,32.01
2023-03-16T12:56:26.393Z,25.00
2023-03-16T13:00:26.069Z,30.02
2023-03-16T13:04:26.401Z,27.83
2023-03-16T13:08:26.357Z,28.81
2023-03-16T13:12:26.397Z,29.93
2023-03-16T13:20:31.129Z,25.26
2023-03-16T13:28:26.895Z,25.49
2023-03-16T13:40:26.428Z,39.86
2023-03-16T13:44:26.413Z,42.66
2023-03-16T13:48:26.371Z,42.64
2023-03-16T13:52:25.967Z,42.58
2023-03-16T13:56:26.379Z,39.66
2023-03-16T14:00:26.406Z,31.48
2023-03-16T14:04:26.375Z,30.82
2023-03-16T14:08:26.879Z,29.79
2023-03-16T14:12:26.892Z,29.66
2023-03-16T14:16:26.954Z,26.63
2023-03-16T14:20:26.396Z,31.17
2023-03-16T14:24:26.386Z,34.31
2023-03-16T14:28:26.201Z,37.40
2023-03-16T14:32:26.503Z,41.16
2023-03-16T14:36:26.388Z,35.26
2023-03-16T14:40:26.403Z,38.99
2023-03-16T14:44:26.393Z,38.49
2023-03-16T14:48:26.431Z,29.48
2023-03-16T14:52:26.397Z,36.05
2023-03-16T14:56:26.903Z,37.86
2023-03-16T15:00:26.501Z,30.23
2023-03-16T15:04:26.924Z,32.29
2023-03-16T15:08:26.901Z,34.71
2023-03-16T15:12:26.777Z,34.97
2023-03-16T15:16:27.414Z,33.13
2023-03-16T15:20:27.443Z,28.28
2023-03-16T15:24:27.413Z,34.00
2023-03-16T15:28:27.439Z,34.14
2023-03-16T15:44:26.851Z,34.84
2023-03-16T15:52:26.955Z,24.86
2023-03-16T15:56:26.614Z,40.58
2023-03-16T16:00:26.948Z,32.50
2023-03-16T16:04:26.555Z,32.46
2023-03-16T16:08:26.945Z,37.20
2023-03-16T16:12:26.362Z,51.26
2023-03-16T16:16:26.449Z,55.95
2023-03-16T16:20:26.443Z,63.57
2023-03-16T18:20:28.116Z,122.40
2023-03-16T18:24:28.255Z,123.09
2023-03-16T18:28:28.362Z,123.17
2023-03-16T18:32:28.649Z,122.65
2023-03-16T18:36:28.714Z,122.94
2023-03-16T18:40:29.163Z,123.69
2023-03-16T18:44:29.075Z,123.53
2023-03-16T18:48:29.282Z,123.93
2023-03-16T18:52:29.459Z,125.01
2023-03-16T18:56:29.658Z,124.42
2023-03-16T19:00:30.007Z,124.55
2023-03-16T19:04:30.116Z,124.01
2023-03-16T19:08:30.319Z,124.01
2023-03-16T19:12:30.296Z,124.79
2023-03-16T19:16:30.304Z,125.05
2023-03-16T19:20:30.318Z,125.68
2023-03-16T19:24:30.224Z,125.68
2023-03-16T19:28:30.211Z,124.89
2023-03-16T19:32:30.202Z,124.51
2023-03-16T19:36:30.503Z,125.34
2023-03-16T19:40:30.491Z,125.69
2023-03-16T19:44:30.714Z,125.35
2023-03-16T19:48:30.937Z,124.84
2023-03-16T19:52:31.291Z,124.67
2023-03-16T19:56:31.366Z,125.79
2023-03-16T20:00:31.536Z,125.18
2023-03-16T20:04:31.747Z,125.14
2023-03-16T20:08:31.883Z,125.23
2023-03-16T20:12:31.957Z,125.02
2023-03-16T20:16:32.063Z,125.69
2023-03-16T20:20:32.222Z,125.89
2023-03-16T20:24:32.307Z,126.36
2023-03-16T21:04:32.654Z,125.46
2023-03-16T21:08:32.656Z,124.50
2023-03-16T21:12:32.782Z,126.49
2023-03-16T21:16:32.731Z,124.46
2023-03-16T21:20:32.753Z,125.16
2023-03-16T21:24:32.793Z,124.72
2023-03-16T21:28:32.864Z,125.52
2023-03-16T21:32:32.919Z,124.83
